createdAt,value
2023-03-27T00:00:16.628Z,3.26
2023-03-27T00:05:20.563Z,3.23
2023-03-27T00:10:23.405Z,3.19
2023-03-27T00:15:27.217Z,3.21
2023-03-27T00:20:30.058Z,3.22
2023-03-27T00:25:32.609Z,3.20
2023-03-27T00:30:36.950Z,3.15
2023-03-27T00:35:39.620Z,3.12
2023-03-27T00:40:44.035Z,3.15
2023-03-27T00:45:50.926Z,3.18
2023-03-27T00:50:54.549Z,3.18
2023-03-27T00:56:02.356Z,3.19
2023-03-27T01:01:08.551Z,3.19
2023-03-27T01:06:13.898Z,3.19
2023-03-27T01:11:23.600Z,3.21
2023-03-27T01:16:34.878Z,3.26
2023-03-27T01:21:55.381Z,3.27
2023-03-27T01:27:03.352Z,3.25
2023-03-27T01:32:30.534Z,3.25
2023-03-27T01:37:50.287Z,3.21
2023-03-27T01:43:02.161Z,3.18
2023-03-27T01:48:11.769Z,3.12
2023-03-27T01:53:18.937Z,3.04
2023-03-27T01:58:28.069Z,2.97
2023-03-27T02:03:35.699Z,2.87
2023-03-27T02:08:44.945Z,2.86
2023-03-27T02:13:53.124Z,2.81
2023-03-27T02:19:01.860Z,2.80
2023-03-27T02:24:05.979Z,2.78
2023-03-27T02:29:27.610Z,2.76
2023-03-27T02:34:46.310Z,2.72
2023-03-27T02:39:56.697Z,2.64
2023-03-27T02:45:10.177Z,2.56
2023-03-27T02:50:16.941Z,2.50
2023-03-27T02:55:23.955Z,2.46
2023-03-27T03:00:31.567Z,2.43
2023-03-27T03:05:37.221Z,2.40
2023-03-27T03:10:44.529Z,2.35
2023-03-27T03:15:50.470Z,2.30
2023-03-27T03:20:54.090Z,2.23
2023-03-27T03:25:57.495Z,2.19
2023-03-27T03:31:02.673Z,2.13
2023-03-27T03:36:06.491Z,2.09
2023-03-27T03:41:09.101Z,2.06
2023-03-27T03:46:12.960Z,2.06
2023-03-27T03:51:15.496Z,2.08
2023-03-27T03:56:18.021Z,2.10
2023-03-27T04:01:22.898Z,2.10
2023-03-27T04:06:25.856Z,2.14
2023-03-27T04:11:28.377Z,2.17
2023-03-27T04:16:32.366Z,2.15
2023-03-27T04:21:36.338Z,2.09
2023-03-27T04:26:39.149Z,2.04
2023-03-27T04:31:46.601Z,1.98
2023-03-27T04:36:50.165Z,1.93
2023-03-27T04:41:53.803Z,1.85
2023-03-27T04:46:58.032Z,1.73
2023-03-27T04:52:00.794Z,1.65
2023-03-27T04:57:03.789Z,1.63
2023-03-27T05:02:07.695Z,1.57
2023-03-27T05:07:12.131Z,1.53
2023-03-27T05:12:14.694Z,1.49
2023-03-27T05:17:18.545Z,1.50
2023-03-27T05:22:21.062Z,1.53
2023-03-27T05:27:24.017Z,1.57
2023-03-27T05:32:28.203Z,1.65
2023-03-27T05:37:30.951Z,1.69
2023-03-27T05:42:33.431Z,1.74
2023-03-27T05:47:44.890Z,1.84
2023-03-27T05:52:48.162Z,1.90
2023-03-27T05:57:50.645Z,1.93
2023-03-27T06:02:57.389Z,1.97
2023-03-27T06:08:00.776Z,2.06
2023-03-27T06:13:04.978Z,2.17
2023-03-27T06:18:09.427Z,2.29
2023-03-27T06:23:12.681Z,2.44
2023-03-27T06:28:15.192Z,2.57
2023-03-27T06:33:19.133Z,2.68
2023-03-27T06:38:21.913Z,2.81
2023-03-27T06:43:24.518Z,2.94
2023-03-27T06:48:28.712Z,3.10
2023-03-27T06:53:34.858Z,3.25
2023-03-27T06:58:40.005Z,3.35
2023-03-27T07:03:43.899Z,3.47
2023-03-27T07:08:47.734Z,3.58
2023-03-27T07:13:51.423Z,3.77
2023-03-27T07:18:55.683Z,3.78
2023-03-27T07:23:58.172Z,3.89
2023-03-27T07:29:03.037Z,4.10
2023-03-27T07:34:07.012Z,4.24
2023-03-27T07:39:09.830Z,4.16
2023-03-27T07:44:12.332Z,4.11
2023-03-27T07:49:16.146Z,4.29
2023-03-27T07:54:18.632Z,4.32
2023-03-27T07:59:21.352Z,4.38
2023-03-27T08:04:25.374Z,4.34
2023-03-27T08:09:28.069Z,4.46
2023-03-27T08:14:30.577Z,4.68
2023-03-27T08:19:35.045Z,4.86
2023-03-27T08:24:37.550Z,4.90
2023-03-27T08:29:40.164Z,5.03
2023-03-27T08:34:44.017Z,5.13
2023-03-27T08:39:47.004Z,5.17
2023-03-27T08:44:54.835Z,5.12
2023-03-27T08:50:04.881Z,5.21
2023-03-27T08:55:13.724Z,5.26
2023-03-27T09:00:22.888Z,5.37
2023-03-27T09:05:34.397Z,5.55
2023-03-27T09:10:41.592Z,5.68
2023-03-27T09:15:53.124Z,5.74
2023-03-27T09:21:03.445Z,5.96
2023-03-27T09:26:09.855Z,6.21
2023-03-27T09:31:26.409Z,6.14
2023-03-27T09:36:30.554Z,5.95
2023-03-27T09:41:38.823Z,6.10
2023-03-27T09:46:45.207Z,6.03
2023-03-27T09:51:51.223Z,6.28
2023-03-27T09:56:57.740Z,6.55
2023-03-27T10:02:09.092Z,6.71
2023-03-27T10:07:24.601Z,6.99
2023-03-27T10:12:27.784Z,6.88
2023-03-27T10:17:36.687Z,6.63
2023-03-27T10:22:42.830Z,6.45
2023-03-27T10:27:45.740Z,6.49
2023-03-27T10:32:48.797Z,6.81
2023-03-27T10:37:53.314Z,6.88
2023-03-27T10:42:57.082Z,7.35
2023-03-27T10:48:02.631Z,7.93
2023-03-27T10:53:16.741Z,7.82
2023-03-27T10:58:27.092Z,7.63
2023-03-27T11:03:35.465Z,7.51
2023-03-27T11:08:52.876Z,7.87
2023-03-27T11:14:02.204Z,8.17
2023-03-27T11:19:22.478Z,8.72
2023-03-27T11:24:34.843Z,8.82
2023-03-27T11:29:43.594Z,9.08
2023-03-27T11:34:52.990Z,8.88
2023-03-27T11:40:01.699Z,9.14
2023-03-27T11:45:07.321Z,8.65
2023-03-27T11:50:22.929Z,8.16
2023-03-27T11:55:33.225Z,7.83
2023-03-27T12:00:39.465Z,7.77
2023-03-27T12:05:55.150Z,7.55
2023-03-27T12:11:03.593Z,7.44
2023-03-27T12:16:22.415Z,7.33
2023-03-27T12:21:29.248Z,7.35
2023-03-27T12:26:53.669Z,7.76
2023-03-27T12:32:24.835Z,8.06
2023-03-27T12:37:31.751Z,7.77
2023-03-27T12:42:51.012Z,7.79
2023-03-27T12:48:17.655Z,8.02
2023-03-27T12:53:21.717Z,8.33
2023-03-27T12:58:35.182Z,8.70
2023-03-27T13:03:57.593Z,8.92
2023-03-27T13:09:36.940Z,8.72
2023-03-27T13:14:58.922Z,8.42
2023-03-27T13:20:11.953Z,8.06
2023-03-27T13:25:23.853Z,7.86
2023-03-27T13:30:47.515Z,7.86
2023-03-27T13:36:04.629Z,7.87
2023-03-27T13:41:44.739Z,7.80
2023-03-27T13:46:54.895Z,7.64
2023-03-27T13:52:28.002Z,7.61
2023-03-27T13:57:54.932Z,7.49
2023-03-27T14:03:18.726Z,7.44
2023-03-27T14:08:35.322Z,7.42
2023-03-27T14:13:48.929Z,7.45
2023-03-27T14:19:27.479Z,7.45
2023-03-27T14:24:37.178Z,7.39
2023-03-27T14:29:40.155Z,7.22
2023-03-27T14:34:55.091Z,7.24
2023-03-27T14:40:00.692Z,7.34
2023-03-27T14:45:17.897Z,7.43
2023-03-27T14:50:23.036Z,7.57
2023-03-27T14:55:29.930Z,6.65
2023-03-27T15:00:35.122Z,5.97
2023-03-27T15:05:57.123Z,5.11
2023-03-27T15:10:59.939Z,4.59
2023-03-27T15:16:04.197Z,4.65
2023-03-27T15:21:13.592Z,4.59
2023-03-27T15:26:24.174Z,4.79
2023-03-27T15:31:30.002Z,5.03
2023-03-27T15:36:36.025Z,5.26
2023-03-27T15:41:44.788Z,5.44
2023-03-27T15:46:51.071Z,5.51
2023-03-27T15:51:55.403Z,5.61
2023-03-27T15:57:10.751Z,5.57
2023-03-27T16:02:17.393Z,5.33
2023-03-27T16:07:24.248Z,4.94
2023-03-27T16:12:31.807Z,4.55
2023-03-27T16:17:40.329Z,4.56
2023-03-27T16:22:44.310Z,4.78
2023-03-27T16:27:48.994Z,4.95
2023-03-27T16:32:51.634Z,5.15
2023-03-27T16:37:56.443Z,5.31
2023-03-27T16:42:59.005Z,5.52
2023-03-27T16:48:01.711Z,5.51
2023-03-27T16:53:05.668Z,5.57
2023-03-27T16:58:08.167Z,5.55
2023-03-27T17:03:11.359Z,5.52
2023-03-27T17:08:16.795Z,5.68
2023-03-27T17:13:19.436Z,5.88
2023-03-27T17:18:21.970Z,5.86
2023-03-27T17:23:26.918Z,5.69
2023-03-27T17:28:29.483Z,5.79
2023-03-27T17:33:32.047Z,5.72
2023-03-27T17:38:36.674Z,5.52
2023-03-27T17:43:39.307Z,5.49
2023-03-27T17:48:42.829Z,5.44
2023-03-27T17:53:46.921Z,5.31
2023-03-27T17:58:50.098Z,5.15
2023-03-27T18:03:52.658Z,5.22
2023-03-27T18:08:56.664Z,5.09
2023-03-27T18:13:59.205Z,4.73
2023-03-27T18:19:01.713Z,4.23
2023-03-27T18:24:06.115Z,4.01
2023-03-27T18:29:08.729Z,3.72
2023-03-27T18:34:11.245Z,3.67
2023-03-27T18:39:15.337Z,3.59
2023-03-27T18:44:18.220Z,3.55
2023-03-27T18:49:24.835Z,3.53
2023-03-27T18:54:29.455Z,3.54
2023-03-27T18:59:31.962Z,3.56
2023-03-27T19:04:34.464Z,3.59
2023-03-27T19:09:41.653Z,3.63
2023-03-27T19:14:44.512Z,3.75
2023-03-27T19:19:47.038Z,3.82
2023-03-27T19:24:50.990Z,3.94
2023-03-27T19:29:54.130Z,3.99
2023-03-27T19:34:56.637Z,4.05
2023-03-27T19:40:00.828Z,4.05
2023-03-27T19:45:03.546Z,4.00
2023-03-27T19:50:08.735Z,3.89
2023-03-27T19:55:12.622Z,3.82
2023-03-27T20:00:16.170Z,3.75
2023-03-27T20:05:18.675Z,3.66
2023-03-27T20:10:22.996Z,3.61
2023-03-27T20:15:25.757Z,3.74
2023-03-27T20:20:29.292Z,3.67
2023-03-27T20:25:35.310Z,3.65
2023-03-27T20:30:39.868Z,3.43
2023-03-27T20:35:42.645Z,2.86
2023-03-27T20:40:53.248Z,2.56
2023-03-27T20:45:58.742Z,2.38
2023-03-27T20:51:06.538Z,2.36
2023-03-27T20:56:12.290Z,2.31
2023-03-27T21:01:19.213Z,2.34
2023-03-27T21:06:22.101Z,2.33
2023-03-27T21:11:26.167Z,2.38
2023-03-27T21:16:28.802Z,2.39
2023-03-27T21:21:32.087Z,2.29
2023-03-27T21:26:37.255Z,2.22
2023-03-27T21:31:40.082Z,2.20
2023-03-27T21:36:42.798Z,2.18
2023-03-27T21:41:46.677Z,2.16
2023-03-27T21:46:49.176Z,2.14
2023-03-27T21:51:51.675Z,2.10
2023-03-27T21:56:55.735Z,2.10
2023-03-27T22:01:58.273Z,2.11
2023-03-27T22:07:00.939Z,2.14
2023-03-27T22:12:06.014Z,2.12
2023-03-27T22:17:08.518Z,2.15
2023-03-27T22:22:11.036Z,2.18
2023-03-27T22:27:14.871Z,2.21
2023-03-27T22:32:17.372Z,2.20
2023-03-27T22:37:20.770Z,2.21
2023-03-27T22:42:24.575Z,2.24
2023-03-27T22:47:27.390Z,2.28
2023-03-27T22:52:29.942Z,2.31
2023-03-27T22:57:35.977Z,2.34
2023-03-27T23:02:38.569Z,2.25
2023-03-27T23:07:41.125Z,2.04
2023-03-27T23:12:44.989Z,2.01
2023-03-27T23:17:47.510Z,1.99
2023-03-27T23:22:50.274Z,1.97
2023-03-27T23:27:54.124Z,1.97
2023-03-27T23:32:56.664Z,1.88
2023-03-27T23:37:59.192Z,1.89
2023-03-27T23:43:03.014Z,1.90
2023-03-27T23:48:05.737Z,1.93
2023-03-27T23:53:08.406Z,1.98
2023-03-27T23:58:12.254Z,2.03
